createdAt,value
2022-08-17T00:03:06.658Z,4.90
2022-08-17T00:06:18.593Z,4.80
2022-08-17T00:09:26.553Z,4.20
2022-08-17T00:12:44.371Z,4.30
2022-08-17T00:15:53.873Z,4.60
2022-08-17T00:19:08.323Z,4.50
2022-08-17T00:22:33.881Z,4.30
2022-08-17T00:25:46.189Z,4.70
2022-08-17T00:28:54.805Z,4.60
2022-08-17T00:33:12.482Z,4.60
2022-08-17T00:35:32.917Z,4.30
2022-08-17T00:38:41.837Z,4.70
2022-08-17T00:41:49.897Z,4.70
2022-08-17T00:44:57.802Z,4.70
2022-08-17T00:48:06.099Z,4.30
2022-08-17T00:51:39.945Z,4.60
2022-08-17T00:54:55.242Z,5.00
2022-08-17T00:58:07.165Z,4.50
2022-08-17T01:01:21.610Z,4.70
2022-08-17T01:04:33.101Z,4.60
2022-08-17T01:07:41.433Z,4.70
2022-08-17T01:10:59.140Z,4.60
2022-08-17T01:14:09.548Z,4.40
2022-08-17T01:17:18.062Z,5.10
2022-08-17T01:20:25.909Z,4.60
2022-08-17T01:23:34.470Z,4.70
2022-08-17T01:26:43.938Z,4.70
2022-08-17T01:29:59.010Z,4.80
2022-08-17T01:33:11.429Z,4.60
2022-08-17T01:36:20.043Z,4.60
2022-08-17T01:39:37.385Z,4.80
2022-08-17T01:42:53.253Z,5.20
2022-08-17T01:46:04.024Z,5.10
2022-08-17T01:49:13.932Z,5.00
2022-08-17T01:52:24.293Z,4.50
2022-08-17T01:55:40.023Z,5.00
2022-08-17T01:58:48.678Z,4.90
2022-08-17T02:01:57.245Z,4.60
2022-08-17T02:05:05.440Z,5.10
2022-08-17T02:08:20.090Z,4.60
2022-08-17T02:11:28.493Z,4.50
2022-08-17T02:14:38.910Z,4.20
2022-08-17T02:17:46.843Z,4.60
2022-08-17T02:21:03.287Z,4.60
2022-08-17T02:24:16.990Z,5.10
2022-08-17T02:27:25.507Z,4.70
2022-08-17T02:31:00.363Z,5.20
2022-08-17T02:34:04.569Z,4.80
2022-08-17T02:37:13.117Z,5.00
2022-08-17T02:40:36.152Z,4.70
2022-08-17T02:43:45.511Z,4.80
2022-08-17T02:46:53.555Z,4.80
2022-08-17T02:50:01.462Z,5.40
2022-08-17T02:53:09.642Z,5.20
2022-08-17T02:56:17.629Z,4.60
2022-08-17T02:59:25.573Z,4.70
2022-08-17T03:02:38.512Z,4.90
2022-08-17T03:05:48.160Z,4.80
2022-08-17T03:12:11.409Z,5.30
2022-08-17T03:15:23.521Z,5.40
2022-08-17T03:18:31.648Z,5.00
2022-08-17T03:21:39.739Z,5.30
2022-08-17T03:24:47.931Z,5.70
2022-08-17T03:27:56.822Z,5.00
2022-08-17T03:31:05.869Z,5.80
2022-08-17T03:34:14.263Z,5.80
2022-08-17T03:37:22.219Z,5.20
2022-08-17T03:40:34.401Z,5.40
2022-08-17T03:43:59.829Z,5.70
2022-08-17T03:47:25.859Z,5.70
2022-08-17T03:50:51.718Z,5.80
2022-08-17T03:54:18.900Z,5.70
2022-08-17T03:57:27.252Z,5.50
2022-08-17T04:00:36.386Z,5.60
2022-08-17T04:03:48.118Z,5.50
2022-08-17T04:06:56.012Z,5.60
2022-08-17T04:10:04.522Z,5.70
2022-08-17T04:13:12.990Z,5.90
2022-08-17T04:16:21.084Z,5.80
2022-08-17T04:19:29.205Z,5.90
2022-08-17T04:22:37.279Z,6.60
2022-08-17T04:25:50.197Z,6.30
2022-08-17T04:28:58.806Z,6.40
2022-08-17T04:32:09.025Z,6.30
2022-08-17T04:35:21.363Z,6.20
2022-08-17T04:38:33.681Z,5.80
2022-08-17T04:41:58.659Z,6.60
2022-08-17T04:45:09.900Z,6.50
2022-08-17T04:48:18.066Z,6.70
2022-08-17T04:51:29.264Z,6.30
2022-08-17T04:54:37.417Z,6.40
2022-08-17T04:57:45.396Z,6.80
2022-08-17T05:00:53.633Z,6.00
2022-08-17T05:04:21.343Z,6.60
2022-08-17T05:07:34.265Z,6.70
2022-08-17T05:10:45.327Z,6.10
2022-08-17T05:13:54.254Z,6.70
2022-08-17T05:17:02.039Z,6.40
2022-08-17T05:20:17.813Z,6.00
2022-08-17T05:23:42.031Z,6.00
2022-08-17T05:26:51.634Z,6.70
2022-08-17T05:30:00.242Z,6.90
2022-08-17T05:33:16.754Z,6.90
2022-08-17T05:36:43.542Z,6.60
2022-08-17T05:39:52.271Z,5.60
2022-08-17T05:43:12.281Z,6.10
2022-08-17T05:46:27.846Z,5.70
2022-08-17T05:49:35.697Z,6.20
2022-08-17T05:52:57.305Z,5.90
2022-08-17T05:56:29.208Z,6.10
2022-08-17T05:59:54.296Z,6.00
2022-08-17T06:03:26.791Z,6.00
2022-08-17T06:06:47.885Z,6.40
2022-08-17T06:10:05.111Z,5.50
2022-08-17T06:13:30.387Z,5.80
2022-08-17T06:16:44.594Z,5.80
2022-08-17T06:20:00.154Z,5.60
2022-08-17T06:23:18.617Z,5.90
2022-08-17T06:26:39.673Z,5.90
2022-08-17T06:29:59.241Z,5.70
2022-08-17T06:33:16.126Z,6.10
2022-08-17T06:36:47.662Z,5.90
2022-08-17T06:40:16.212Z,5.90
2022-08-17T06:43:50.078Z,5.70
2022-08-17T06:47:09.153Z,5.70
2022-08-17T06:50:26.451Z,5.60
2022-08-17T06:53:44.939Z,5.50
2022-08-17T06:57:01.934Z,5.90
2022-08-17T07:00:17.252Z,6.00
2022-08-17T07:03:39.388Z,5.70
2022-08-17T07:06:56.152Z,5.60
2022-08-17T07:10:07.866Z,5.80
2022-08-17T07:13:32.364Z,5.60
2022-08-17T07:16:46.877Z,5.50
2022-08-17T07:20:05.054Z,5.50
2022-08-17T07:23:26.790Z,5.60
2022-08-17T07:26:35.021Z,6.00
2022-08-17T07:29:50.596Z,5.80
2022-08-17T07:33:02.964Z,6.10
2022-08-17T07:36:33.759Z,5.30
2022-08-17T07:40:14.920Z,6.20
2022-08-17T07:43:29.435Z,5.80
2022-08-17T07:47:09.117Z,5.60
2022-08-17T07:50:33.214Z,5.40
2022-08-17T07:53:47.793Z,5.20
2022-08-17T07:56:58.885Z,5.50
2022-08-17T08:00:29.155Z,5.60
2022-08-17T08:03:52.400Z,5.80
2022-08-17T08:07:06.680Z,5.30
2022-08-17T08:10:29.926Z,5.40
2022-08-17T08:13:42.939Z,5.50
2022-08-17T08:17:03.177Z,5.50
2022-08-17T08:20:37.552Z,5.50
2022-08-17T08:23:57.571Z,5.60
2022-08-17T08:27:20.427Z,5.60
2022-08-17T08:30:28.559Z,5.70
2022-08-17T08:33:56.992Z,5.70
2022-08-17T08:37:24.973Z,5.40
2022-08-17T08:41:00.173Z,5.20
2022-08-17T08:45:00.663Z,5.40
2022-08-17T08:48:53.272Z,5.20
2022-08-17T08:55:14.633Z,5.20
2022-08-17T09:02:04.944Z,4.90
2022-08-17T09:05:33.106Z,5.30
2022-08-17T09:09:03.339Z,5.40
2022-08-17T09:12:23.135Z,5.20
2022-08-17T09:15:39.848Z,5.20
2022-08-17T09:19:01.517Z,5.40
2022-08-17T09:22:31.909Z,5.00
2022-08-17T09:25:52.692Z,4.40
2022-08-17T09:29:07.483Z,4.70
2022-08-17T09:32:25.436Z,4.20
2022-08-17T09:35:41.799Z,4.80
2022-08-17T09:39:02.309Z,4.20
2022-08-17T09:42:22.922Z,4.30
2022-08-17T09:45:40.153Z,4.30
2022-08-17T09:48:59.003Z,4.30
2022-08-17T09:52:13.110Z,4.40
2022-08-17T09:55:21.750Z,4.30
2022-08-17T09:58:47.763Z,4.00
2022-08-17T10:02:21.326Z,3.90
2022-08-17T10:05:40.074Z,4.00
2022-08-17T10:12:20.341Z,4.00
2022-08-17T10:15:47.291Z,4.20
2022-08-17T10:19:13.901Z,3.90
2022-08-17T10:23:04.418Z,4.10
2022-08-17T10:26:20.185Z,3.70
2022-08-17T10:29:47.329Z,4.10
2022-08-17T10:33:03.374Z,4.50
2022-08-17T10:36:22.964Z,4.00
2022-08-17T10:39:51.882Z,3.90
2022-08-17T10:43:11.810Z,4.10
2022-08-17T10:46:30.919Z,3.90
2022-08-17T10:49:44.568Z,4.00
2022-08-17T10:52:53.888Z,4.10
2022-08-17T10:56:39.191Z,4.10
2022-08-17T10:59:56.473Z,3.70
2022-08-17T11:03:16.344Z,3.80
2022-08-17T11:06:42.611Z,3.70
2022-08-17T11:10:34.972Z,3.60
2022-08-17T11:14:06.483Z,3.60
2022-08-17T11:17:42.902Z,3.80
2022-08-17T11:21:40.701Z,3.50
2022-08-17T11:24:51.692Z,3.60
2022-08-17T11:28:18.091Z,3.60
2022-08-17T11:31:43.458Z,3.70
2022-08-17T11:34:51.486Z,3.60
2022-08-17T11:38:16.708Z,3.20
2022-08-17T11:41:37.488Z,3.50
2022-08-17T11:44:57.916Z,3.40
2022-08-17T11:48:37.082Z,3.50
2022-08-17T11:52:38.810Z,3.60
2022-08-17T11:56:10.200Z,3.80
2022-08-17T12:00:01.070Z,3.30
2022-08-17T12:03:58.959Z,3.30
2022-08-17T12:07:18.149Z,3.50
2022-08-17T12:10:32.128Z,3.30
2022-08-17T12:13:47.707Z,3.10
2022-08-17T12:17:07.445Z,3.20
2022-08-17T12:20:25.817Z,3.10
2022-08-17T12:23:44.241Z,3.20
2022-08-17T12:27:00.404Z,3.00
2022-08-17T12:30:16.640Z,3.00
2022-08-17T12:33:29.041Z,3.20
2022-08-17T12:36:41.451Z,2.80
2022-08-17T12:40:00.858Z,3.00
2022-08-17T12:43:20.060Z,3.00
2022-08-17T12:46:28.271Z,2.80
2022-08-17T12:52:47.129Z,2.50
2022-08-17T12:55:57.882Z,2.90
2022-08-17T12:59:07.347Z,2.70
2022-08-17T13:02:32.389Z,2.90
2022-08-17T13:05:46.216Z,2.60
2022-08-17T13:08:54.067Z,3.00
2022-08-17T13:12:05.159Z,2.70
2022-08-17T13:15:26.276Z,2.90
2022-08-17T13:18:48.487Z,2.90
2022-08-17T13:22:00.098Z,2.80
2022-08-17T13:25:16.635Z,2.80
2022-08-17T13:28:30.609Z,2.90
2022-08-17T13:31:52.443Z,2.80
2022-08-17T13:35:39.536Z,2.70
2022-08-17T13:38:52.187Z,2.90
2022-08-17T13:42:00.026Z,3.00
2022-08-17T13:45:39.261Z,2.90
2022-08-17T13:48:57.897Z,2.60
2022-08-17T13:52:06.936Z,2.70
2022-08-17T13:55:23.981Z,2.70
2022-08-17T13:58:38.821Z,2.50
2022-08-17T14:01:53.852Z,2.80
2022-08-17T14:05:06.059Z,3.00
2022-08-17T14:08:18.264Z,2.90
2022-08-17T14:11:27.626Z,3.00
2022-08-17T14:14:36.433Z,2.90
2022-08-17T14:17:44.592Z,2.90
2022-08-17T14:20:53.414Z,2.60
2022-08-17T14:24:02.556Z,2.90
2022-08-17T14:27:12.107Z,2.80
2022-08-17T14:30:21.432Z,3.00
2022-08-17T14:33:30.546Z,2.90
2022-08-17T14:36:38.749Z,2.90
2022-08-17T14:39:58.959Z,3.10
2022-08-17T14:43:07.275Z,3.00
2022-08-17T14:49:22.065Z,2.90
2022-08-17T14:52:30.713Z,3.00
2022-08-17T14:55:40.833Z,3.00
2022-08-17T14:58:49.212Z,2.70
2022-08-17T15:01:57.959Z,2.90
2022-08-17T15:05:11.695Z,3.00
2022-08-17T15:08:22.355Z,2.70
2022-08-17T15:11:32.046Z,2.90
2022-08-17T15:14:41.005Z,2.70
2022-08-17T15:17:51.275Z,2.80
2022-08-17T15:21:01.624Z,2.90
2022-08-17T15:24:12.021Z,2.80
2022-08-17T15:27:32.307Z,2.90
2022-08-17T15:30:43.334Z,2.70
2022-08-17T15:33:52.084Z,2.80
2022-08-17T15:37:00.170Z,2.80
2022-08-17T15:40:11.735Z,3.00
2022-08-17T15:43:27.611Z,2.90
2022-08-17T15:46:36.298Z,3.00
2022-08-17T15:49:46.567Z,4.10
2022-08-17T15:53:01.074Z,3.30
2022-08-17T15:56:10.270Z,2.60
2022-08-17T15:59:18.571Z,3.10
2022-08-17T16:03:44.412Z,3.70
2022-08-17T16:06:00.879Z,3.30
2022-08-17T16:09:08.880Z,2.70
2022-08-17T16:12:22.087Z,2.80
2022-08-17T16:15:31.124Z,2.70
2022-08-17T16:18:41.681Z,2.90
2022-08-17T16:21:49.650Z,3.10
2022-08-17T16:28:56.429Z,2.90
2022-08-17T16:32:15.753Z,2.90
2022-08-17T16:35:26.676Z,2.80
2022-08-17T16:38:36.631Z,2.90
2022-08-17T16:44:56.016Z,2.70
2022-08-17T16:48:05.069Z,2.90
2022-08-17T16:51:14.000Z,2.70
2022-08-17T16:54:22.600Z,2.90
2022-08-17T16:57:47.428Z,2.70
2022-08-17T17:01:12.284Z,3.00
2022-08-17T17:04:27.988Z,3.20
2022-08-17T17:08:14.137Z,3.40
2022-08-17T17:11:36.764Z,8.20
2022-08-17T17:18:07.320Z,5.20
2022-08-17T17:21:26.657Z,5.00
2022-08-17T17:27:58.965Z,2.90
2022-08-17T17:31:14.547Z,3.20
2022-08-17T17:34:24.505Z,3.20
2022-08-17T17:37:37.903Z,3.40
2022-08-17T17:40:51.594Z,2.90
2022-08-17T17:44:07.806Z,4.30
2022-08-17T17:47:18.332Z,3.80
2022-08-17T17:50:38.115Z,3.00
2022-08-17T17:53:58.596Z,3.20
2022-08-17T17:57:17.856Z,3.10
2022-08-17T18:00:32.162Z,3.30
2022-08-17T18:03:59.306Z,3.10
2022-08-17T18:07:31.179Z,3.20
2022-08-17T18:10:54.733Z,4.60
2022-08-17T18:14:22.672Z,3.50
2022-08-17T18:17:31.438Z,6.10
2022-08-17T18:20:53.333Z,4.20
2022-08-17T18:24:10.714Z,4.50
2022-08-17T18:27:32.355Z,3.40
2022-08-17T18:30:40.529Z,3.70
2022-08-17T18:33:52.923Z,3.50
2022-08-17T18:37:01.571Z,3.40
2022-08-17T18:40:38.190Z,3.10
2022-08-17T18:43:53.829Z,3.50
2022-08-17T18:47:17.523Z,3.50
2022-08-17T18:50:35.603Z,3.90
2022-08-17T18:53:44.581Z,3.80
2022-08-17T18:56:59.440Z,3.90
2022-08-17T19:00:18.455Z,3.60
2022-08-17T19:03:30.013Z,4.10
2022-08-17T19:06:39.626Z,4.10
2022-08-17T19:09:54.258Z,3.70
2022-08-17T19:13:12.832Z,3.80
2022-08-17T19:16:30.578Z,5.40
2022-08-17T19:19:51.649Z,5.00
2022-08-17T19:23:11.769Z,4.40
2022-08-17T19:26:53.398Z,4.00
2022-08-17T19:30:06.950Z,4.70
2022-08-17T19:33:16.254Z,4.40
2022-08-17T19:36:44.557Z,4.10
2022-08-17T19:40:08.057Z,4.10
2022-08-17T19:43:31.404Z,3.70
2022-08-17T19:46:50.571Z,3.80
2022-08-17T19:50:13.784Z,4.10
2022-08-17T19:54:01.639Z,3.80
2022-08-17T19:57:16.966Z,3.90
2022-08-17T20:00:25.399Z,3.80
2022-08-17T20:03:41.847Z,3.70
2022-08-17T20:06:53.437Z,3.80
2022-08-17T20:10:12.230Z,3.60
2022-08-17T20:13:33.474Z,3.60
2022-08-17T20:16:42.962Z,3.90
2022-08-17T20:20:00.332Z,3.70
2022-08-17T20:23:22.940Z,3.80
2022-08-17T20:26:55.233Z,3.70
2022-08-17T20:30:37.913Z,3.50
2022-08-17T20:33:45.808Z,3.50
2022-08-17T20:37:08.737Z,3.60
2022-08-17T20:40:26.068Z,3.20
2022-08-17T20:44:05.605Z,3.90
2022-08-17T20:47:26.950Z,3.70
2022-08-17T20:50:42.040Z,3.40
2022-08-17T20:54:43.198Z,3.50
2022-08-17T20:57:52.495Z,3.40
2022-08-17T21:05:00.671Z,3.30
2022-08-17T21:08:26.191Z,3.70
2022-08-17T21:12:03.863Z,3.70
2022-08-17T21:15:37.534Z,3.90
2022-08-17T21:18:53.335Z,3.70
2022-08-17T21:22:18.040Z,3.70
2022-08-17T21:25:56.539Z,3.60
2022-08-17T21:29:31.086Z,3.70
2022-08-17T21:32:44.848Z,3.90
2022-08-17T21:36:17.377Z,3.60
2022-08-17T21:39:40.893Z,3.70
2022-08-17T21:42:55.787Z,3.60
2022-08-17T21:46:11.586Z,3.80
2022-08-17T21:49:26.410Z,3.50
2022-08-17T21:52:34.727Z,3.50
2022-08-17T21:55:42.739Z,3.60
2022-08-17T21:58:58.755Z,3.50
2022-08-17T22:02:17.922Z,3.80
2022-08-17T22:05:36.589Z,3.50
2022-08-17T22:08:57.845Z,3.30
2022-08-17T22:12:11.573Z,3.60
2022-08-17T22:15:20.741Z,3.70
2022-08-17T22:18:32.189Z,3.70
2022-08-17T22:21:40.190Z,3.80
2022-08-17T22:24:57.978Z,3.70
2022-08-17T22:28:09.202Z,3.60
2022-08-17T22:31:20.182Z,3.90
2022-08-17T22:34:28.284Z,3.60
2022-08-17T22:37:36.400Z,3.70
2022-08-17T22:40:45.421Z,3.50
2022-08-17T22:43:57.595Z,3.70
2022-08-17T22:47:25.605Z,3.80
2022-08-17T22:50:35.523Z,3.70
2022-08-17T22:54:09.852Z,3.60
2022-08-17T22:57:51.929Z,3.90
2022-08-17T23:01:20.986Z,3.80
2022-08-17T23:04:39.513Z,3.80
2022-08-17T23:07:52.879Z,4.00
2022-08-17T23:11:01.768Z,3.40
2022-08-17T23:14:12.565Z,3.90
2022-08-17T23:17:21.393Z,3.70
2022-08-17T23:20:29.599Z,3.60
2022-08-17T23:23:39.483Z,3.80
2022-08-17T23:26:47.614Z,3.70
2022-08-17T23:29:55.978Z,3.60
2022-08-17T23:33:09.199Z,3.80
2022-08-17T23:36:18.963Z,3.80
2022-08-17T23:39:28.400Z,3.70
2022-08-17T23:45:43.854Z,3.80
2022-08-17T23:48:54.312Z,4.10
2022-08-17T23:52:05.904Z,4.00
2022-08-17T23:55:14.843Z,3.80
2022-08-17T23:58:22.876Z,4.10
